sensor_id;sensor_type;location;lat;lon;timestamp;P1;durP1;ratioP1;P2;durP2;ratioP2
18689;SDS011;9782;52.930;15.562;2022-11-15T00:00:07;291.50;;;57.40;;
18689;SDS011;9782;52.930;15.562;2022-11-15T00:02:36;219.83;;;53.10;;
18689;SDS011;9782;52.930;15.562;2022-11-15T00:05:03;293.83;;;54.90;;
18689;SDS011;9782;52.930;15.562;2022-11-15T00:07:31;439.07;;;66.17;;
18689;SDS011;9782;52.930;15.562;2022-11-15T00:09:58;262.67;;;53.07;;
18689;SDS011;9782;52.930;15.562;2022-11-15T00:12:26;202.80;;;50.03;;
18689;SDS011;9782;52.930;15.562;2022-11-15T00:14:53;255.83;;;49.97;;
18689;SDS011;9782;52.930;15.562;2022-11-15T00:17:20;206.53;;;49.70;;
18689;SDS011;9782;52.930;15.562;2022-11-15T00:19:47;203.37;;;47.00;;
18689;SDS011;9782;52.930;15.562;2022-11-15T00:22:14;266.43;;;50.73;;
18689;SDS011;9782;52.930;15.562;2022-11-15T00:24:43;287.90;;;52.03;;
18689;SDS011;9782;52.930;15.562;2022-11-15T00:27:10;407.10;;;60.57;;
18689;SDS011;9782;52.930;15.562;2022-11-15T00:29:37;438.50;;;62.67;;
18689;SDS011;9782;52.930;15.562;2022-11-15T00:32:08;351.80;;;55.73;;
18689;SDS011;9782;52.930;15.562;2022-11-15T00:34:35;392.87;;;57.70;;
18689;SDS011;9782;52.930;15.562;2022-11-15T00:37:02;321.43;;;55.23;;
18689;SDS011;9782;52.930;15.562;2022-11-15T00:39:29;317.27;;;52.67;;
18689;SDS011;9782;52.930;15.562;2022-11-15T00:41:58;369.70;;;54.90;;
18689;SDS011;9782;52.930;15.562;2022-11-15T00:44:25;409.70;;;60.63;;
18689;SDS011;9782;52.930;15.562;2022-11-15T00:46:52;185.23;;;44.20;;
18689;SDS011;9782;52.930;15.562;2022-11-15T00:49:19;376.43;;;58.90;;
18689;SDS011;9782;52.930;15.562;2022-11-15T00:51:46;366.07;;;56.17;;
18689;SDS011;9782;52.930;15.562;2022-11-15T00:54:13;336.53;;;53.87;;
18689;SDS011;9782;52.930;15.562;2022-11-15T00:56:41;274.73;;;50.40;;
18689;SDS011;9782;52.930;15.562;2022-11-15T00:59:09;301.07;;;50.47;;
18689;SDS011;9782;52.930;15.562;2022-11-15T01:01:36;180.80;;;45.83;;
18689;SDS011;9782;52.930;15.562;2022-11-15T01:04:03;338.80;;;54.20;;
18689;SDS011;9782;52.930;15.562;2022-11-15T01:06:31;342.63;;;56.20;;
18689;SDS011;9782;52.930;15.562;2022-11-15T01:08:58;255.77;;;50.07;;
18689;SDS011;9782;52.930;15.562;2022-11-15T01:11:25;445.73;;;61.13;;
18689;SDS011;9782;52.930;15.562;2022-11-15T01:13:52;305.97;;;56.17;;
18689;SDS011;9782;52.930;15.562;2022-11-15T01:16:22;367.60;;;56.73;;
18689;SDS011;9782;52.930;15.562;2022-11-15T01:18:50;415.83;;;60.93;;
18689;SDS011;9782;52.930;15.562;2022-11-15T01:21:18;362.60;;;57.60;;
18689;SDS011;9782;52.930;15.562;2022-11-15T01:23:45;314.23;;;54.63;;
18689;SDS011;9782;52.930;15.562;2022-11-15T01:26:13;471.80;;;64.63;;
18689;SDS011;9782;52.930;15.562;2022-11-15T01:28:41;253.07;;;49.53;;
18689;SDS011;9782;52.930;15.562;2022-11-15T01:31:11;389.30;;;60.70;;
18689;SDS011;9782;52.930;15.562;2022-11-15T01:33:41;180.80;;;45.80;;
18689;SDS011;9782;52.930;15.562;2022-11-15T01:36:10;323.90;;;53.53;;
18689;SDS011;9782;52.930;15.562;2022-11-15T01:38:39;186.90;;;47.30;;
18689;SDS011;9782;52.930;15.562;2022-11-15T01:41:06;509.03;;;65.93;;
18689;SDS011;9782;52.930;15.562;2022-11-15T01:43:41;316.73;;;52.20;;
18689;SDS011;9782;52.930;15.562;2022-11-15T01:46:23;192.53;;;46.83;;
18689;SDS011;9782;52.930;15.562;2022-11-15T01:48:56;305.93;;;51.83;;
18689;SDS011;9782;52.930;15.562;2022-11-15T01:51:27;170.80;;;44.00;;
18689;SDS011;9782;52.930;15.562;2022-11-15T01:53:59;160.40;;;44.00;;
18689;SDS011;9782;52.930;15.562;2022-11-15T01:56:30;437.80;;;61.30;;
18689;SDS011;9782;52.930;15.562;2022-11-15T01:59:02;250.17;;;46.50;;
18689;SDS011;9782;52.930;15.562;2022-11-15T02:01:32;287.80;;;47.97;;
18689;SDS011;9782;52.930;15.562;2022-11-15T02:04:02;243.47;;;48.30;;
18689;SDS011;9782;52.930;15.562;2022-11-15T02:06:33;472.80;;;62.93;;
18689;SDS011;9782;52.930;15.562;2022-11-15T02:09:02;332.37;;;51.13;;
18689;SDS011;9782;52.930;15.562;2022-11-15T02:11:29;301.80;;;48.50;;
18689;SDS011;9782;52.930;15.562;2022-11-15T02:13:57;249.10;;;46.33;;
18689;SDS011;9782;52.930;15.562;2022-11-15T02:16:27;221.27;;;44.70;;
18689;SDS011;9782;52.930;15.562;2022-11-15T02:19:04;377.03;;;52.67;;
18689;SDS011;9782;52.930;15.562;2022-11-15T02:21:40;164.47;;;41.60;;
18689;SDS011;9782;52.930;15.562;2022-11-15T02:24:17;341.80;;;50.37;;
18689;SDS011;9782;52.930;15.562;2022-11-15T02:27:30;351.27;;;52.80;;
18689;SDS011;9782;52.930;15.562;2022-11-15T02:30:27;229.50;;;45.10;;
18689;SDS011;9782;52.930;15.562;2022-11-15T02:33:02;293.57;;;45.60;;
18689;SDS011;9782;52.930;15.562;2022-11-15T02:35:37;249.40;;;43.43;;
18689;SDS011;9782;52.930;15.562;2022-11-15T02:38:12;373.77;;;54.23;;
18689;SDS011;9782;52.930;15.562;2022-11-15T02:40:46;195.33;;;43.63;;
18689;SDS011;9782;52.930;15.562;2022-11-15T02:43:22;178.90;;;41.43;;
18689;SDS011;9782;52.930;15.562;2022-11-15T02:46:14;351.20;;;49.83;;
18689;SDS011;9782;52.930;15.562;2022-11-15T02:48:46;251.00;;;46.57;;
18689;SDS011;9782;52.930;15.562;2022-11-15T02:51:14;389.10;;;53.63;;
18689;SDS011;9782;52.930;15.562;2022-11-15T02:53:42;191.63;;;41.40;;
18689;SDS011;9782;52.930;15.562;2022-11-15T02:56:09;191.97;;;40.63;;
18689;SDS011;9782;52.930;15.562;2022-11-15T02:58:48;226.53;;;43.70;;
18689;SDS011;9782;52.930;15.562;2022-11-15T03:01:30;289.20;;;44.97;;
18689;SDS011;9782;52.930;15.562;2022-11-15T03:04:11;294.83;;;46.53;;
18689;SDS011;9782;52.930;15.562;2022-11-15T03:06:48;223.50;;;42.80;;
18689;SDS011;9782;52.930;15.562;2022-11-15T03:09:21;168.07;;;38.83;;
18689;SDS011;9782;52.930;15.562;2022-11-15T03:11:59;218.37;;;41.17;;
18689;SDS011;9782;52.930;15.562;2022-11-15T03:14:30;249.67;;;44.23;;
18689;SDS011;9782;52.930;15.562;2022-11-15T03:17:04;394.80;;;52.50;;
18689;SDS011;9782;52.930;15.562;2022-11-15T03:19:40;316.47;;;47.63;;
18689;SDS011;9782;52.930;15.562;2022-11-15T03:22:14;187.83;;;40.90;;
18689;SDS011;9782;52.930;15.562;2022-11-15T03:24:44;285.10;;;46.40;;
18689;SDS011;9782;52.930;15.562;2022-11-15T03:27:14;306.23;;;45.67;;
18689;SDS011;9782;52.930;15.562;2022-11-15T03:29:48;164.17;;;38.37;;
18689;SDS011;9782;52.930;15.562;2022-11-15T03:32:21;254.20;;;46.63;;
18689;SDS011;9782;52.930;15.562;2022-11-15T03:34:53;275.73;;;44.40;;
18689;SDS011;9782;52.930;15.562;2022-11-15T03:37:25;319.57;;;48.50;;
18689;SDS011;9782;52.930;15.562;2022-11-15T03:39:56;216.40;;;41.13;;
18689;SDS011;9782;52.930;15.562;2022-11-15T03:42:26;204.27;;;42.43;;
18689;SDS011;9782;52.930;15.562;2022-11-15T03:44:58;202.30;;;40.80;;
18689;SDS011;9782;52.930;15.562;2022-11-15T03:47:34;265.13;;;43.90;;
18689;SDS011;9782;52.930;15.562;2022-11-15T03:50:07;295.97;;;45.47;;
18689;SDS011;9782;52.930;15.562;2022-11-15T03:52:37;136.07;;;37.27;;
18689;SDS011;9782;52.930;15.562;2022-11-15T03:55:06;306.90;;;45.63;;
18689;SDS011;9782;52.930;15.562;2022-11-15T03:57:37;181.27;;;38.63;;
18689;SDS011;9782;52.930;15.562;2022-11-15T04:00:04;209.80;;;41.27;;
18689;SDS011;9782;52.930;15.562;2022-11-15T04:02:33;383.70;;;49.97;;
18689;SDS011;9782;52.930;15.562;2022-11-15T04:05:00;164.93;;;39.37;;
18689;SDS011;9782;52.930;15.562;2022-11-15T04:07:28;347.53;;;49.03;;
18689;SDS011;9782;52.930;15.562;2022-11-15T04:09:55;203.60;;;40.97;;
18689;SDS011;9782;52.930;15.562;2022-11-15T04:12:31;293.30;;;44.70;;
18689;SDS011;9782;52.930;15.562;2022-11-15T04:15:00;134.03;;;36.70;;
18689;SDS011;9782;52.930;15.562;2022-11-15T04:17:37;126.90;;;36.37;;
18689;SDS011;9782;52.930;15.562;2022-11-15T04:20:06;189.27;;;40.20;;
18689;SDS011;9782;52.930;15.562;2022-11-15T04:22:53;312.13;;;45.60;;
18689;SDS011;9782;52.930;15.562;2022-11-15T04:25:39;181.47;;;38.50;;
18689;SDS011;9782;52.930;15.562;2022-11-15T04:28:06;365.80;;;50.33;;
18689;SDS011;9782;52.930;15.562;2022-11-15T04:30:33;321.03;;;45.97;;
18689;SDS011;9782;52.930;15.562;2022-11-15T04:33:01;236.83;;;41.70;;
18689;SDS011;9782;52.930;15.562;2022-11-15T04:35:29;208.57;;;40.43;;
18689;SDS011;9782;52.930;15.562;2022-11-15T04:37:57;179.60;;;39.17;;
18689;SDS011;9782;52.930;15.562;2022-11-15T04:40:23;260.73;;;43.07;;
18689;SDS011;9782;52.930;15.562;2022-11-15T04:42:51;163.67;;;36.10;;
18689;SDS011;9782;52.930;15.562;2022-11-15T04:45:18;164.50;;;39.40;;
18689;SDS011;9782;52.930;15.562;2022-11-15T04:47:45;138.90;;;36.23;;
18689;SDS011;9782;52.930;15.562;2022-11-15T04:50:14;168.77;;;37.37;;
18689;SDS011;9782;52.930;15.562;2022-11-15T04:52:42;344.43;;;45.77;;
18689;SDS011;9782;52.930;15.562;2022-11-15T04:55:16;148.03;;;35.27;;
18689;SDS011;9782;52.930;15.562;2022-11-15T04:57:43;194.07;;;39.17;;
18689;SDS011;9782;52.930;15.562;2022-11-15T05:00:11;247.03;;;41.57;;
18689;SDS011;9782;52.930;15.562;2022-11-15T05:02:40;190.50;;;40.63;;
18689;SDS011;9782;52.930;15.562;2022-11-15T05:05:26;219.10;;;39.97;;
18689;SDS011;9782;52.930;15.562;2022-11-15T05:07:53;195.87;;;37.97;;
18689;SDS011;9782;52.930;15.562;2022-11-15T05:10:20;180.53;;;36.50;;
18689;SDS011;9782;52.930;15.562;2022-11-15T05:12:47;149.63;;;35.73;;
18689;SDS011;9782;52.930;15.562;2022-11-15T05:15:14;108.90;;;33.83;;
18689;SDS011;9782;52.930;15.562;2022-11-15T05:17:42;128.83;;;34.13;;
18689;SDS011;9782;52.930;15.562;2022-11-15T05:20:09;123.40;;;33.43;;
18689;SDS011;9782;52.930;15.562;2022-11-15T05:22:38;203.23;;;36.73;;
18689;SDS011;9782;52.930;15.562;2022-11-15T05:25:06;310.77;;;45.47;;
18689;SDS011;9782;52.930;15.562;2022-11-15T05:27:34;124.17;;;33.97;;
18689;SDS011;9782;52.930;15.562;2022-11-15T05:30:01;161.17;;;34.80;;
18689;SDS011;9782;52.930;15.562;2022-11-15T05:32:28;311.57;;;44.93;;
18689;SDS011;9782;52.930;15.562;2022-11-15T05:34:55;230.43;;;39.73;;
18689;SDS011;9782;52.930;15.562;2022-11-15T05:37:22;203.07;;;38.47;;
18689;SDS011;9782;52.930;15.562;2022-11-15T05:39:51;141.90;;;36.63;;
18689;SDS011;9782;52.930;15.562;2022-11-15T05:42:18;260.60;;;39.13;;
18689;SDS011;9782;52.930;15.562;2022-11-15T05:44:46;312.00;;;44.17;;
18689;SDS011;9782;52.930;15.562;2022-11-15T05:47:15;350.43;;;43.70;;
18689;SDS011;9782;52.930;15.562;2022-11-15T05:49:46;217.83;;;38.03;;
18689;SDS011;9782;52.930;15.562;2022-11-15T05:52:16;137.83;;;33.63;;
18689;SDS011;9782;52.930;15.562;2022-11-15T05:54:47;168.43;;;36.13;;
18689;SDS011;9782;52.930;15.562;2022-11-15T05:57:17;352.73;;;45.87;;
18689;SDS011;9782;52.930;15.562;2022-11-15T05:59:44;133.90;;;32.20;;
18689;SDS011;9782;52.930;15.562;2022-11-15T06:02:11;183.50;;;35.43;;
18689;SDS011;9782;52.930;15.562;2022-11-15T06:04:38;324.07;;;41.60;;
18689;SDS011;9782;52.930;15.562;2022-11-15T06:07:06;374.20;;;45.40;;
18689;SDS011;9782;52.930;15.562;2022-11-15T06:09:34;159.10;;;32.50;;
18689;SDS011;9782;52.930;15.562;2022-11-15T06:12:01;348.70;;;43.07;;
18689;SDS011;9782;52.930;15.562;2022-11-15T06:14:29;391.47;;;45.63;;
18689;SDS011;9782;52.930;15.562;2022-11-15T06:16:56;147.53;;;32.83;;
18689;SDS011;9782;52.930;15.562;2022-11-15T06:19:24;181.00;;;35.57;;
18689;SDS011;9782;52.930;15.562;2022-11-15T06:21:51;162.00;;;34.67;;
18689;SDS011;9782;52.930;15.562;2022-11-15T06:24:18;196.73;;;32.10;;
18689;SDS011;9782;52.930;15.562;2022-11-15T06:26:45;340.73;;;41.77;;
18689;SDS011;9782;52.930;15.562;2022-11-15T06:29:12;162.13;;;34.53;;
18689;SDS011;9782;52.930;15.562;2022-11-15T06:31:40;163.60;;;32.87;;
18689;SDS011;9782;52.930;15.562;2022-11-15T06:34:08;222.17;;;36.37;;
18689;SDS011;9782;52.930;15.562;2022-11-15T06:36:35;270.13;;;40.13;;
18689;SDS011;9782;52.930;15.562;2022-11-15T06:39:03;424.57;;;54.60;;
18689;SDS011;9782;52.930;15.562;2022-11-15T06:41:33;229.90;;;36.40;;
18689;SDS011;9782;52.930;15.562;2022-11-15T06:44:00;203.73;;;33.73;;
18689;SDS011;9782;52.930;15.562;2022-11-15T06:46:28;349.57;;;40.70;;
18689;SDS011;9782;52.930;15.562;2022-11-15T06:48:57;161.07;;;33.07;;
18689;SDS011;9782;52.930;15.562;2022-11-15T06:53:54;464.23;;;49.67;;
18689;SDS011;9782;52.930;15.562;2022-11-15T06:56:21;320.17;;;40.43;;
18689;SDS011;9782;52.930;15.562;2022-11-15T06:58:48;202.53;;;34.33;;
18689;SDS011;9782;52.930;15.562;2022-11-15T07:01:15;346.63;;;39.83;;
18689;SDS011;9782;52.930;15.562;2022-11-15T07:03:42;218.90;;;33.70;;
18689;SDS011;9782;52.930;15.562;2022-11-15T07:06:12;320.53;;;41.43;;
18689;SDS011;9782;52.930;15.562;2022-11-15T07:08:39;363.70;;;43.03;;
18689;SDS011;9782;52.930;15.562;2022-11-15T07:11:07;423.60;;;47.13;;
18689;SDS011;9782;52.930;15.562;2022-11-15T07:13:35;211.03;;;83.60;;
18689;SDS011;9782;52.930;15.562;2022-11-15T07:16:03;404.37;;;60.63;;
18689;SDS011;9782;52.930;15.562;2022-11-15T07:18:32;141.73;;;38.03;;
18689;SDS011;9782;52.930;15.562;2022-11-15T07:21:00;343.73;;;41.10;;
18689;SDS011;9782;52.930;15.562;2022-11-15T07:23:30;222.27;;;34.80;;
18689;SDS011;9782;52.930;15.562;2022-11-15T07:25:58;242.70;;;37.93;;
18689;SDS011;9782;52.930;15.562;2022-11-15T07:28:25;212.93;;;37.07;;
18689;SDS011;9782;52.930;15.562;2022-11-15T07:30:53;193.80;;;35.87;;
18689;SDS011;9782;52.930;15.562;2022-11-15T07:33:20;298.50;;;40.80;;
18689;SDS011;9782;52.930;15.562;2022-11-15T07:35:48;212.10;;;38.93;;
18689;SDS011;9782;52.930;15.562;2022-11-15T07:38:15;124.13;;;32.20;;
18689;SDS011;9782;52.930;15.562;2022-11-15T07:40:46;260.03;;;38.87;;
18689;SDS011;9782;52.930;15.562;2022-11-15T07:43:21;210.30;;;33.73;;
18689;SDS011;9782;52.930;15.562;2022-11-15T07:45:49;229.50;;;34.93;;
18689;SDS011;9782;52.930;15.562;2022-11-15T07:48:16;307.40;;;38.40;;
18689;SDS011;9782;52.930;15.562;2022-11-15T07:50:43;312.23;;;39.43;;
18689;SDS011;9782;52.930;15.562;2022-11-15T07:53:11;139.60;;;32.80;;
18689;SDS011;9782;52.930;15.562;2022-11-15T07:55:39;173.30;;;32.50;;
18689;SDS011;9782;52.930;15.562;2022-11-15T07:58:09;226.83;;;36.03;;
18689;SDS011;9782;52.930;15.562;2022-11-15T08:00:37;174.83;;;31.90;;
18689;SDS011;9782;52.930;15.562;2022-11-15T08:03:05;139.70;;;31.87;;
18689;SDS011;9782;52.930;15.562;2022-11-15T08:05:34;275.80;;;61.77;;
18689;SDS011;9782;52.930;15.562;2022-11-15T08:08:03;325.93;;;69.27;;
18689;SDS011;9782;52.930;15.562;2022-11-15T08:10:31;246.93;;;43.00;;
18689;SDS011;9782;52.930;15.562;2022-11-15T08:12:58;270.50;;;45.43;;
18689;SDS011;9782;52.930;15.562;2022-11-15T08:15:28;191.87;;;35.87;;
18689;SDS011;9782;52.930;15.562;2022-11-15T08:17:56;313.90;;;58.80;;
18689;SDS011;9782;52.930;15.562;2022-11-15T08:20:24;447.13;;;96.23;;
18689;SDS011;9782;52.930;15.562;2022-11-15T08:22:54;252.53;;;65.73;;
18689;SDS011;9782;52.930;15.562;2022-11-15T08:25:22;322.83;;;60.83;;
18689;SDS011;9782;52.930;15.562;2022-11-15T08:27:51;172.83;;;34.50;;
18689;SDS011;9782;52.930;15.562;2022-11-15T08:30:19;165.03;;;35.20;;
18689;SDS011;9782;52.930;15.562;2022-11-15T08:32:48;328.20;;;40.37;;
18689;SDS011;9782;52.930;15.562;2022-11-15T08:35:15;170.30;;;33.13;;
18689;SDS011;9782;52.930;15.562;2022-11-15T08:37:43;225.77;;;34.00;;
18689;SDS011;9782;52.930;15.562;2022-11-15T08:40:10;230.67;;;35.73;;
18689;SDS011;9782;52.930;15.562;2022-11-15T08:42:39;209.70;;;35.93;;
18689;SDS011;9782;52.930;15.562;2022-11-15T08:45:06;173.50;;;40.53;;
18689;SDS011;9782;52.930;15.562;2022-11-15T08:47:34;337.93;;;55.70;;
18689;SDS011;9782;52.930;15.562;2022-11-15T08:50:03;241.53;;;43.30;;
18689;SDS011;9782;52.930;15.562;2022-11-15T08:52:30;230.10;;;39.20;;
18689;SDS011;9782;52.930;15.562;2022-11-15T08:54:57;180.07;;;34.33;;
18689;SDS011;9782;52.930;15.562;2022-11-15T08:57:24;336.17;;;41.33;;
18689;SDS011;9782;52.930;15.562;2022-11-15T08:59:54;268.27;;;39.27;;
18689;SDS011;9782;52.930;15.562;2022-11-15T09:02:21;152.73;;;31.97;;
18689;SDS011;9782;52.930;15.562;2022-11-15T09:04:48;117.13;;;36.33;;
18689;SDS011;9782;52.930;15.562;2022-11-15T09:07:17;194.77;;;50.47;;
18689;SDS011;9782;52.930;15.562;2022-11-15T09:09:44;324.10;;;57.10;;
18689;SDS011;9782;52.930;15.562;2022-11-15T09:12:11;239.07;;;48.37;;
18689;SDS011;9782;52.930;15.562;2022-11-15T09:14:39;153.43;;;45.63;;
18689;SDS011;9782;52.930;15.562;2022-11-15T09:17:06;185.97;;;53.50;;
18689;SDS011;9782;52.930;15.562;2022-11-15T09:19:34;263.00;;;42.90;;
18689;SDS011;9782;52.930;15.562;2022-11-15T09:22:02;210.90;;;63.63;;
18689;SDS011;9782;52.930;15.562;2022-11-15T09:24:33;379.53;;;56.90;;
18689;SDS011;9782;52.930;15.562;2022-11-15T09:27:00;267.10;;;44.17;;
18689;SDS011;9782;52.930;15.562;2022-11-15T09:29:27;174.70;;;44.57;;
18689;SDS011;9782;52.930;15.562;2022-11-15T09:31:54;309.70;;;36.57;;
18689;SDS011;9782;52.930;15.562;2022-11-15T09:34:21;383.00;;;38.67;;
18689;SDS011;9782;52.930;15.562;2022-11-15T09:36:48;303.83;;;34.80;;
18689;SDS011;9782;52.930;15.562;2022-11-15T09:39:15;361.60;;;37.60;;
18689;SDS011;9782;52.930;15.562;2022-11-15T09:44:56;276.57;;;34.37;;
18689;SDS011;9782;52.930;15.562;2022-11-15T09:47:42;144.73;;;29.50;;
18689;SDS011;9782;52.930;15.562;2022-11-15T09:50:27;285.50;;;36.27;;
18689;SDS011;9782;52.930;15.562;2022-11-15T09:52:58;231.07;;;33.80;;
18689;SDS011;9782;52.930;15.562;2022-11-15T09:55:38;330.00;;;39.27;;
18689;SDS011;9782;52.930;15.562;2022-11-15T09:58:17;171.90;;;35.73;;
18689;SDS011;9782;52.930;15.562;2022-11-15T10:00:49;259.70;;;34.57;;
18689;SDS011;9782;52.930;15.562;2022-11-15T10:03:21;204.70;;;31.63;;
18689;SDS011;9782;52.930;15.562;2022-11-15T10:05:53;212.03;;;32.77;;
18689;SDS011;9782;52.930;15.562;2022-11-15T10:08:35;225.80;;;30.27;;
18689;SDS011;9782;52.930;15.562;2022-11-15T10:11:14;192.13;;;29.73;;
18689;SDS011;9782;52.930;15.562;2022-11-15T10:13:46;241.77;;;29.57;;
18689;SDS011;9782;52.930;15.562;2022-11-15T10:16:19;193.97;;;29.33;;
18689;SDS011;9782;52.930;15.562;2022-11-15T10:19:04;200.73;;;29.20;;
18689;SDS011;9782;52.930;15.562;2022-11-15T10:21:38;130.90;;;27.50;;
18689;SDS011;9782;52.930;15.562;2022-11-15T10:24:15;150.27;;;29.13;;
18689;SDS011;9782;52.930;15.562;2022-11-15T10:26:46;124.57;;;32.00;;
18689;SDS011;9782;52.930;15.562;2022-11-15T10:29:19;96.07;;;27.07;;
18689;SDS011;9782;52.930;15.562;2022-11-15T10:31:46;102.53;;;28.40;;
18689;SDS011;9782;52.930;15.562;2022-11-15T10:34:14;176.77;;;28.30;;
18689;SDS011;9782;52.930;15.562;2022-11-15T10:36:44;112.40;;;25.07;;
18689;SDS011;9782;52.930;15.562;2022-11-15T10:39:12;130.93;;;25.40;;
18689;SDS011;9782;52.930;15.562;2022-11-15T10:41:40;124.57;;;24.00;;
18689;SDS011;9782;52.930;15.562;2022-11-15T10:44:10;118.33;;;25.30;;
18689;SDS011;9782;52.930;15.562;2022-11-15T10:47:03;192.80;;;26.80;;
18689;SDS011;9782;52.930;15.562;2022-11-15T10:49:33;218.90;;;25.90;;
18689;SDS011;9782;52.930;15.562;2022-11-15T10:52:01;137.60;;;24.43;;
18689;SDS011;9782;52.930;15.562;2022-11-15T10:54:33;107.27;;;24.83;;
18689;SDS011;9782;52.930;15.562;2022-11-15T10:57:05;148.50;;;26.90;;
18689;SDS011;9782;52.930;15.562;2022-11-15T10:59:36;111.80;;;24.83;;
18689;SDS011;9782;52.930;15.562;2022-11-15T11:05:05;92.33;;;25.37;;
18689;SDS011;9782;52.930;15.562;2022-11-15T11:07:55;76.83;;;23.90;;
18689;SDS011;9782;52.930;15.562;2022-11-15T11:10:26;61.90;;;24.60;;
18689;SDS011;9782;52.930;15.562;2022-11-15T11:12:54;149.77;;;27.20;;
18689;SDS011;9782;52.930;15.562;2022-11-15T11:15:24;97.13;;;25.93;;
18689;SDS011;9782;52.930;15.562;2022-11-15T11:17:57;55.53;;;26.40;;
18689;SDS011;9782;52.930;15.562;2022-11-15T11:20:36;68.97;;;27.57;;
18689;SDS011;9782;52.930;15.562;2022-11-15T11:23:17;74.97;;;26.97;;
18689;SDS011;9782;52.930;15.562;2022-11-15T11:26:08;147.20;;;27.37;;
18689;SDS011;9782;52.930;15.562;2022-11-15T11:28:46;123.70;;;26.70;;
18689;SDS011;9782;52.930;15.562;2022-11-15T11:31:26;53.70;;;26.27;;
18689;SDS011;9782;52.930;15.562;2022-11-15T11:34:03;175.50;;;27.23;;
18689;SDS011;9782;52.930;15.562;2022-11-15T11:36:40;104.53;;;25.73;;
18689;SDS011;9782;52.930;15.562;2022-11-15T11:39:18;86.43;;;25.70;;
18689;SDS011;9782;52.930;15.562;2022-11-15T11:41:55;82.73;;;26.20;;
18689;SDS011;9782;52.930;15.562;2022-11-15T11:44:37;95.93;;;26.33;;
18689;SDS011;9782;52.930;15.562;2022-11-15T11:47:14;93.17;;;26.90;;
18689;SDS011;9782;52.930;15.562;2022-11-15T11:49:49;120.43;;;28.57;;
18689;SDS011;9782;52.930;15.562;2022-11-15T11:52:18;121.40;;;29.73;;
18689;SDS011;9782;52.930;15.562;2022-11-15T11:54:57;111.80;;;29.57;;
18689;SDS011;9782;52.930;15.562;2022-11-15T11:57:33;71.60;;;27.97;;
18689;SDS011;9782;52.930;15.562;2022-11-15T12:00:13;98.30;;;27.93;;
18689;SDS011;9782;52.930;15.562;2022-11-15T12:02:47;79.67;;;26.67;;
18689;SDS011;9782;52.930;15.562;2022-11-15T12:05:23;98.40;;;26.00;;
18689;SDS011;9782;52.930;15.562;2022-11-15T12:07:58;73.13;;;26.13;;
18689;SDS011;9782;52.930;15.562;2022-11-15T12:10:31;124.43;;;28.57;;
18689;SDS011;9782;52.930;15.562;2022-11-15T12:13:02;132.23;;;26.90;;
18689;SDS011;9782;52.930;15.562;2022-11-15T12:15:35;84.13;;;25.87;;
18689;SDS011;9782;52.930;15.562;2022-11-15T12:18:09;88.93;;;27.70;;
18689;SDS011;9782;52.930;15.562;2022-11-15T12:20:42;64.67;;;24.10;;
18689;SDS011;9782;52.930;15.562;2022-11-15T12:23:19;79.23;;;25.17;;
18689;SDS011;9782;52.930;15.562;2022-11-15T12:25:51;63.40;;;24.50;;
18689;SDS011;9782;52.930;15.562;2022-11-15T12:28:24;60.10;;;25.37;;
18689;SDS011;9782;52.930;15.562;2022-11-15T12:31:01;59.47;;;24.67;;
18689;SDS011;9782;52.930;15.562;2022-11-15T12:33:36;61.63;;;24.40;;
18689;SDS011;9782;52.930;15.562;2022-11-15T12:36:08;155.13;;;26.10;;
18689;SDS011;9782;52.930;15.562;2022-11-15T12:38:51;98.83;;;26.57;;
18689;SDS011;9782;52.930;15.562;2022-11-15T12:41:21;99.80;;;25.73;;
18689;SDS011;9782;52.930;15.562;2022-11-15T12:43:49;161.60;;;24.97;;
18689;SDS011;9782;52.930;15.562;2022-11-15T12:46:21;126.23;;;24.87;;
18689;SDS011;9782;52.930;15.562;2022-11-15T12:49:11;73.73;;;24.17;;
18689;SDS011;9782;52.930;15.562;2022-11-15T12:52:11;90.33;;;24.67;;
18689;SDS011;9782;52.930;15.562;2022-11-15T12:54:55;78.37;;;23.97;;
18689;SDS011;9782;52.930;15.562;2022-11-15T12:57:29;65.67;;;24.23;;
18689;SDS011;9782;52.930;15.562;2022-11-15T13:00:04;55.63;;;23.93;;
18689;SDS011;9782;52.930;15.562;2022-11-15T13:02:47;80.33;;;25.30;;
18689;SDS011;9782;52.930;15.562;2022-11-15T13:08:35;64.00;;;24.33;;
18689;SDS011;9782;52.930;15.562;2022-11-15T13:14:00;75.57;;;26.53;;
18689;SDS011;9782;52.930;15.562;2022-11-15T13:16:47;151.40;;;27.57;;
18689;SDS011;9782;52.930;15.562;2022-11-15T13:19:15;156.03;;;28.47;;
18689;SDS011;9782;52.930;15.562;2022-11-15T13:21:52;172.87;;;29.97;;
18689;SDS011;9782;52.930;15.562;2022-11-15T13:24:39;133.77;;;28.23;;
18689;SDS011;9782;52.930;15.562;2022-11-15T13:27:10;75.53;;;27.47;;
18689;SDS011;9782;52.930;15.562;2022-11-15T13:29:42;97.20;;;27.67;;
18689;SDS011;9782;52.930;15.562;2022-11-15T13:32:10;78.00;;;25.97;;
18689;SDS011;9782;52.930;15.562;2022-11-15T13:34:39;154.60;;;29.00;;
18689;SDS011;9782;52.930;15.562;2022-11-15T13:37:13;167.63;;;29.47;;
18689;SDS011;9782;52.930;15.562;2022-11-15T13:40:09;133.47;;;28.50;;
18689;SDS011;9782;52.930;15.562;2022-11-15T13:42:50;138.10;;;27.47;;
18689;SDS011;9782;52.930;15.562;2022-11-15T13:45:18;223.97;;;29.87;;
18689;SDS011;9782;52.930;15.562;2022-11-15T13:47:50;227.43;;;28.80;;
18689;SDS011;9782;52.930;15.562;2022-11-15T13:50:20;193.53;;;30.97;;
18689;SDS011;9782;52.930;15.562;2022-11-15T13:52:52;178.63;;;29.27;;
18689;SDS011;9782;52.930;15.562;2022-11-15T13:55:23;164.40;;;29.27;;
18689;SDS011;9782;52.930;15.562;2022-11-15T13:57:51;236.57;;;29.03;;
18689;SDS011;9782;52.930;15.562;2022-11-15T14:00:30;235.47;;;30.70;;
18689;SDS011;9782;52.930;15.562;2022-11-15T14:03:08;179.43;;;28.50;;
18689;SDS011;9782;52.930;15.562;2022-11-15T14:05:43;211.63;;;27.50;;
18689;SDS011;9782;52.930;15.562;2022-11-15T14:08:22;166.87;;;27.73;;
18689;SDS011;9782;52.930;15.562;2022-11-15T14:11:05;210.37;;;28.27;;
18689;SDS011;9782;52.930;15.562;2022-11-15T14:13:33;191.37;;;28.43;;
18689;SDS011;9782;52.930;15.562;2022-11-15T14:16:14;293.57;;;31.17;;
18689;SDS011;9782;52.930;15.562;2022-11-15T14:18:43;243.80;;;27.97;;
18689;SDS011;9782;52.930;15.562;2022-11-15T14:21:13;252.37;;;28.73;;
18689;SDS011;9782;52.930;15.562;2022-11-15T14:23:45;337.00;;;31.17;;
18689;SDS011;9782;52.930;15.562;2022-11-15T14:26:27;254.93;;;28.37;;
18689;SDS011;9782;52.930;15.562;2022-11-15T14:28:55;287.70;;;29.97;;
18689;SDS011;9782;52.930;15.562;2022-11-15T14:31:23;378.80;;;33.97;;
18689;SDS011;9782;52.930;15.562;2022-11-15T14:33:50;285.50;;;29.77;;
18689;SDS011;9782;52.930;15.562;2022-11-15T14:36:18;295.60;;;32.00;;
18689;SDS011;9782;52.930;15.562;2022-11-15T14:38:48;243.17;;;27.83;;
18689;SDS011;9782;52.930;15.562;2022-11-15T14:41:19;278.73;;;28.23;;
18689;SDS011;9782;52.930;15.562;2022-11-15T14:43:48;361.60;;;31.80;;
18689;SDS011;9782;52.930;15.562;2022-11-15T14:46:15;388.47;;;33.43;;
18689;SDS011;9782;52.930;15.562;2022-11-15T14:48:42;213.37;;;28.47;;